createdAt,value
2018-05-21T00:01:47.250Z,80.20
2018-05-21T00:04:14.837Z,81.50
2018-05-21T00:06:42.472Z,82.10
2018-05-21T00:09:10.266Z,83.30
2018-05-21T00:11:37.848Z,83.60
2018-05-21T00:14:05.470Z,84.20
2018-05-21T00:16:33.089Z,86.30
2018-05-21T00:19:00.666Z,86.10
2018-05-21T00:21:29.046Z,89.50
2018-05-21T00:23:57.390Z,90.70
2018-05-21T00:26:25.005Z,91.00
2018-05-21T00:28:52.591Z,91.00
2018-05-21T00:31:20.214Z,91.90
2018-05-21T00:33:47.790Z,92.70
2018-05-21T00:36:15.407Z,93.50
2018-05-21T00:38:42.981Z,94.90
2018-05-21T00:41:10.598Z,96.40
2018-05-21T00:43:38.180Z,97.10
2018-05-21T00:46:05.799Z,97.90
2018-05-21T00:48:33.382Z,98.60
2018-05-21T00:51:01.006Z,99.90
2018-05-21T00:53:29.358Z,99.90
2018-05-21T00:55:56.970Z,99.90
2018-05-21T00:58:24.544Z,99.90
2018-05-21T01:00:52.163Z,99.90
2018-05-21T01:03:19.786Z,99.90
2018-05-21T01:05:47.356Z,99.90
2018-05-21T01:08:14.938Z,99.90
2018-05-21T01:10:42.550Z,99.90
2018-05-21T01:13:10.172Z,99.90
2018-05-21T01:15:37.774Z,99.90
2018-05-21T01:18:05.425Z,99.90
2018-05-21T01:20:33.006Z,99.90
2018-05-21T01:23:00.592Z,99.90
2018-05-21T01:25:28.231Z,99.90
2018-05-21T01:27:55.811Z,99.90
2018-05-21T01:30:23.387Z,99.90
2018-05-21T01:32:51.778Z,99.90
2018-05-21T01:35:20.131Z,99.90
2018-05-21T01:37:47.751Z,99.90
2018-05-21T01:40:15.371Z,99.90
2018-05-21T01:42:43.756Z,99.90
2018-05-21T01:45:12.099Z,99.90
2018-05-21T01:47:39.728Z,99.90
2018-05-21T01:50:07.348Z,99.90
2018-05-21T01:52:34.970Z,99.90
2018-05-21T01:55:02.597Z,99.90
2018-05-21T01:57:31.010Z,99.90
2018-05-21T01:59:58.589Z,99.90
2018-05-21T02:02:26.213Z,99.90
2018-05-21T02:04:53.794Z,99.90
2018-05-21T02:07:21.428Z,99.90
2018-05-21T02:09:49.120Z,99.90
2018-05-21T02:12:16.694Z,99.90
2018-05-21T02:14:44.321Z,99.90
2018-05-21T02:17:11.950Z,99.90
2018-05-21T02:19:39.538Z,99.90
2018-05-21T02:22:07.112Z,99.90
2018-05-21T02:24:34.728Z,99.90
2018-05-21T02:27:02.439Z,99.90
2018-05-21T02:29:29.968Z,99.90
2018-05-21T02:31:58.310Z,99.90
2018-05-21T02:34:26.690Z,99.90
2018-05-21T02:36:54.272Z,99.90
2018-05-21T02:39:21.895Z,99.90
2018-05-21T02:41:49.474Z,99.90
2018-05-21T02:44:17.052Z,99.90
2018-05-21T02:46:44.665Z,99.90
2018-05-21T02:49:12.282Z,99.90
2018-05-21T02:51:39.901Z,99.90
2018-05-21T02:54:07.478Z,99.90
2018-05-21T02:56:35.093Z,99.90
2018-05-21T02:59:02.710Z,99.90
2018-05-21T03:01:30.330Z,99.90
2018-05-21T03:03:57.954Z,99.90
2018-05-21T03:06:25.529Z,99.90
2018-05-21T03:08:53.124Z,99.90
2018-05-21T03:11:20.741Z,99.90
2018-05-21T03:13:49.082Z,99.90
2018-05-21T03:16:16.701Z,99.90
2018-05-21T03:18:44.320Z,99.90
2018-05-21T03:21:11.894Z,99.90
2018-05-21T03:23:39.519Z,99.90
2018-05-21T03:26:07.102Z,99.90
2018-05-21T03:28:34.734Z,99.90
2018-05-21T03:31:02.322Z,99.90
2018-05-21T03:33:29.941Z,99.90
2018-05-21T03:35:57.524Z,99.90
2018-05-21T03:38:25.138Z,99.90
2018-05-21T03:40:53.489Z,99.90
2018-05-21T03:43:21.105Z,99.90
2018-05-21T03:45:48.681Z,99.90
2018-05-21T03:48:16.307Z,99.90
2018-05-21T03:50:43.922Z,99.90
2018-05-21T03:53:11.498Z,99.90
2018-05-21T03:55:39.115Z,99.90
2018-05-21T03:58:18.490Z,99.90
2018-05-21T04:00:57.881Z,99.90
2018-05-21T04:03:37.062Z,99.90
2018-05-21T04:06:04.685Z,99.90
2018-05-21T04:08:32.265Z,99.90
2018-05-21T04:10:59.887Z,99.90
2018-05-21T04:13:27.583Z,99.90
2018-05-21T04:15:55.877Z,99.90
2018-05-21T04:18:23.497Z,99.90
2018-05-21T04:20:51.117Z,99.90
2018-05-21T04:23:18.702Z,99.90
2018-05-21T04:25:46.326Z,99.90
2018-05-21T04:28:13.974Z,99.90
2018-05-21T04:30:41.556Z,99.90
2018-05-21T04:33:09.191Z,99.90
2018-05-21T04:35:36.770Z,99.90
2018-05-21T04:38:04.379Z,99.90
2018-05-21T04:40:31.995Z,99.90
2018-05-21T04:42:59.569Z,99.90
2018-05-21T04:45:27.178Z,99.90
2018-05-21T04:47:54.799Z,99.90
2018-05-21T04:50:22.411Z,99.90
2018-05-21T04:52:49.990Z,99.90
2018-05-21T04:55:17.622Z,99.90
2018-05-21T04:57:45.200Z,99.90
2018-05-21T05:00:12.778Z,99.90
2018-05-21T05:02:41.156Z,99.90
2018-05-21T05:05:08.777Z,99.90
2018-05-21T05:07:36.358Z,99.90
2018-05-21T05:10:03.978Z,99.90
2018-05-21T05:12:32.319Z,99.90
2018-05-21T05:14:59.934Z,99.90
2018-05-21T05:17:27.520Z,99.90
2018-05-21T05:19:55.135Z,99.90
2018-05-21T05:22:22.718Z,99.90
2018-05-21T05:24:50.336Z,99.90
2018-05-21T05:27:17.909Z,99.90
2018-05-21T05:29:45.521Z,99.90
2018-05-21T05:32:13.110Z,99.90
2018-05-21T05:34:40.734Z,99.90
2018-05-21T05:37:08.314Z,99.90
2018-05-21T05:39:35.932Z,99.90
2018-05-21T05:42:04.317Z,99.90
2018-05-21T05:44:31.922Z,99.90
2018-05-21T05:46:59.545Z,99.90
2018-05-21T05:49:27.890Z,99.90
2018-05-21T05:51:55.497Z,99.90
2018-05-21T05:54:23.086Z,99.90
2018-05-21T05:56:50.702Z,99.90
2018-05-21T05:59:18.286Z,99.90
2018-05-21T06:01:46.099Z,99.90
2018-05-21T06:04:13.669Z,99.90
2018-05-21T06:06:41.286Z,99.90
2018-05-21T06:09:08.865Z,99.90
2018-05-21T06:11:36.477Z,99.90
2018-05-21T06:14:04.052Z,99.90
2018-05-21T06:16:31.669Z,99.90
2018-05-21T06:18:59.246Z,99.90
2018-05-21T06:21:26.875Z,99.90
2018-05-21T06:23:54.499Z,99.90
2018-05-21T06:26:22.077Z,99.90
2018-05-21T06:28:49.653Z,99.90
2018-05-21T06:31:17.265Z,99.90
2018-05-21T06:33:44.845Z,99.90
2018-05-21T06:36:12.457Z,99.90
2018-05-21T06:38:40.076Z,99.90
2018-05-21T06:41:07.777Z,99.90
2018-05-21T06:43:35.343Z,99.90
2018-05-21T06:46:03.054Z,99.90
2018-05-21T06:48:30.674Z,99.90
2018-05-21T06:50:58.253Z,99.90
2018-05-21T06:53:26.633Z,99.90
2018-05-21T06:55:54.987Z,99.80
2018-05-21T06:58:22.603Z,99.80
2018-05-21T07:00:50.225Z,98.00
2018-05-21T07:03:17.845Z,98.40
2018-05-21T07:05:45.472Z,96.50
2018-05-21T07:08:13.052Z,95.60
2018-05-21T07:10:40.628Z,95.80
2018-05-21T07:13:08.249Z,95.80
2018-05-21T07:15:36.599Z,93.00
2018-05-21T07:18:04.183Z,93.00
2018-05-21T07:20:31.802Z,92.20
2018-05-21T07:22:59.417Z,91.80
2018-05-21T07:25:26.999Z,91.70
2018-05-21T07:27:54.620Z,91.00
2018-05-21T07:30:24.114Z,89.70
2018-05-21T07:32:51.726Z,88.80
2018-05-21T07:35:19.333Z,88.70
2018-05-21T07:37:46.907Z,88.90
2018-05-21T07:40:14.516Z,86.70
2018-05-21T07:42:42.334Z,88.60
2018-05-21T07:45:09.941Z,87.30
2018-05-21T07:47:37.577Z,84.70
2018-05-21T07:50:06.041Z,83.70
2018-05-21T07:52:33.617Z,83.60
2018-05-21T07:55:01.233Z,82.40
2018-05-21T07:57:28.806Z,80.70
2018-05-21T07:59:56.414Z,80.10
2018-05-21T08:02:23.985Z,79.40
2018-05-21T08:04:51.617Z,80.60
2018-05-21T08:07:19.963Z,79.20
2018-05-21T08:09:47.550Z,79.10
2018-05-21T08:12:15.160Z,78.20
2018-05-21T08:14:42.780Z,76.30
2018-05-21T08:17:10.377Z,76.90
2018-05-21T08:19:37.953Z,76.70
2018-05-21T08:22:05.668Z,73.70
2018-05-21T08:24:33.197Z,73.30
2018-05-21T08:27:00.765Z,75.30
2018-05-21T08:29:28.384Z,70.90
2018-05-21T08:31:55.953Z,70.80
2018-05-21T08:34:23.556Z,70.50
2018-05-21T08:36:51.171Z,69.80
2018-05-21T08:39:18.746Z,69.10
2018-05-21T08:41:46.357Z,67.90
2018-05-21T08:44:13.987Z,67.80
2018-05-21T08:46:41.562Z,68.50
2018-05-21T08:49:09.142Z,68.20
2018-05-21T08:51:36.773Z,65.60
2018-05-21T08:54:04.356Z,65.60
2018-05-21T08:56:32.020Z,64.70
2018-05-21T08:58:59.569Z,63.90
2018-05-21T09:01:27.156Z,64.10
2018-05-21T09:03:55.540Z,61.80
2018-05-21T09:06:23.167Z,61.70
2018-05-21T09:08:50.750Z,61.80
2018-05-21T09:11:19.096Z,60.30
2018-05-21T09:13:46.790Z,60.30
2018-05-21T09:16:14.389Z,58.20
2018-05-21T09:18:41.994Z,58.50
2018-05-21T09:21:09.560Z,57.00
2018-05-21T09:23:37.177Z,55.90
2018-05-21T09:26:04.855Z,56.70
2018-05-21T09:28:32.480Z,55.10
2018-05-21T09:31:00.090Z,54.60
2018-05-21T09:33:27.685Z,54.30
2018-05-21T09:35:55.302Z,56.10
2018-05-21T09:38:22.935Z,55.70
2018-05-21T09:40:50.509Z,55.70
2018-05-21T09:43:18.117Z,52.90
2018-05-21T09:45:46.452Z,52.30
2018-05-21T09:48:14.080Z,52.30
2018-05-21T09:50:41.662Z,52.70
2018-05-21T09:53:09.277Z,52.90
2018-05-21T09:55:36.850Z,50.90
2018-05-21T09:58:04.426Z,50.30
2018-05-21T10:00:32.923Z,50.70
2018-05-21T10:03:00.434Z,50.70
2018-05-21T10:05:28.049Z,49.70
2018-05-21T10:07:55.612Z,48.50
2018-05-21T10:10:23.224Z,49.90
2018-05-21T10:12:50.833Z,49.00
2018-05-21T10:15:18.404Z,49.50
2018-05-21T10:17:46.025Z,49.40
2018-05-21T10:20:14.403Z,48.50
2018-05-21T10:22:42.748Z,48.80
2018-05-21T10:25:10.353Z,48.70
2018-05-21T10:27:37.967Z,48.70
2018-05-21T10:30:05.587Z,48.40
2018-05-21T10:32:33.157Z,47.30
2018-05-21T10:35:01.455Z,45.00
2018-05-21T10:37:29.119Z,45.20
2018-05-21T10:39:56.729Z,44.30
2018-05-21T10:42:24.310Z,45.20
2018-05-21T10:44:51.936Z,44.60
2018-05-21T10:47:19.539Z,45.20
2018-05-21T10:49:47.148Z,45.10
2018-05-21T10:52:14.772Z,45.50
2018-05-21T10:54:42.350Z,44.80
2018-05-21T10:57:09.961Z,44.90
2018-05-21T10:59:38.307Z,44.20
2018-05-21T11:02:05.913Z,44.10
2018-05-21T11:04:33.532Z,44.90
2018-05-21T11:07:01.143Z,44.50
2018-05-21T11:09:28.754Z,43.10
2018-05-21T11:11:56.326Z,45.30
2018-05-21T11:14:23.945Z,44.20
2018-05-21T11:16:51.553Z,45.20
2018-05-21T11:19:19.132Z,47.10
2018-05-21T11:21:46.748Z,45.10
2018-05-21T11:24:14.384Z,43.90
2018-05-21T11:26:41.956Z,43.30
2018-05-21T11:29:09.617Z,44.80
2018-05-21T11:31:37.250Z,44.40
2018-05-21T11:34:04.826Z,42.60
2018-05-21T11:36:32.485Z,42.00
2018-05-21T11:39:00.051Z,44.10
2018-05-21T11:41:27.654Z,42.90
2018-05-21T11:43:55.261Z,42.40
2018-05-21T11:46:22.892Z,42.80
2018-05-21T11:48:50.497Z,41.90
2018-05-21T11:51:18.109Z,42.40
2018-05-21T11:53:45.729Z,42.50
2018-05-21T11:56:13.307Z,42.40
2018-05-21T11:58:40.936Z,41.50
2018-05-21T12:01:08.512Z,40.70
2018-05-21T12:03:36.089Z,39.70
2018-05-21T12:06:03.719Z,40.70
2018-05-21T12:08:31.346Z,40.50
2018-05-21T12:10:59.557Z,41.40
2018-05-21T12:13:27.578Z,41.70
2018-05-21T12:15:55.251Z,43.20
2018-05-21T12:18:22.830Z,40.90
2018-05-21T12:20:53.566Z,41.40
2018-05-21T12:23:21.572Z,41.40
2018-05-21T12:25:49.673Z,41.10
2018-05-21T12:28:19.439Z,39.40
2018-05-21T12:30:47.452Z,41.30
2018-05-21T12:33:15.870Z,39.00
2018-05-21T12:35:44.101Z,39.70
2018-05-21T12:38:12.256Z,40.80
2018-05-21T12:40:40.340Z,40.50
2018-05-21T12:43:09.241Z,37.70
2018-05-21T12:45:37.463Z,37.70
2018-05-21T12:48:05.680Z,40.00
2018-05-21T12:50:33.815Z,39.70
2018-05-21T12:53:01.842Z,37.40
2018-05-21T12:55:29.936Z,38.50
2018-05-21T12:57:58.132Z,37.00
2018-05-21T13:00:26.227Z,36.50
2018-05-21T13:02:54.411Z,37.20
2018-05-21T13:05:22.415Z,38.80
2018-05-21T13:07:50.501Z,34.80
2018-05-21T13:10:18.776Z,35.30
2018-05-21T13:12:46.941Z,36.60
2018-05-21T13:15:14.885Z,34.40
2018-05-21T13:17:44.294Z,35.20
2018-05-21T13:20:13.776Z,34.90
2018-05-21T13:22:43.129Z,34.80
2018-05-21T13:25:10.962Z,33.40
2018-05-21T13:27:39.103Z,32.70
2018-05-21T13:30:07.068Z,34.40
2018-05-21T13:32:34.735Z,34.40
2018-05-21T13:35:02.682Z,32.10
2018-05-21T13:37:30.760Z,32.60
2018-05-21T13:39:58.959Z,33.40
2018-05-21T13:42:27.058Z,32.90
2018-05-21T13:44:56.268Z,31.50
2018-05-21T13:47:24.409Z,31.50
2018-05-21T13:49:52.361Z,32.20
2018-05-21T13:52:21.348Z,32.00
2018-05-21T13:54:49.587Z,31.40
2018-05-21T13:57:18.332Z,32.00
2018-05-21T13:59:46.371Z,32.60
2018-05-21T14:02:14.504Z,32.60
2018-05-21T14:04:42.543Z,32.90
2018-05-21T14:07:10.557Z,32.90
2018-05-21T14:09:39.562Z,32.90
2018-05-21T14:12:08.473Z,32.70
2018-05-21T14:14:36.555Z,32.70
2018-05-21T14:17:04.561Z,32.20
2018-05-21T14:19:33.220Z,31.40
2018-05-21T14:22:01.508Z,31.40
2018-05-21T14:24:31.687Z,31.60
2018-05-21T14:26:59.701Z,31.80
2018-05-21T14:29:27.377Z,31.60
2018-05-21T14:31:54.988Z,31.30
2018-05-21T14:34:22.568Z,31.80
2018-05-21T14:36:50.182Z,33.00
2018-05-21T14:39:17.748Z,31.80
2018-05-21T14:41:45.362Z,32.00
2018-05-21T14:44:12.939Z,31.70
2018-05-21T14:46:40.566Z,31.80
2018-05-21T14:49:08.478Z,32.10
2018-05-21T14:51:37.522Z,32.40
2018-05-21T14:54:05.144Z,31.90
2018-05-21T14:56:32.754Z,31.60
2018-05-21T14:59:00.324Z,30.50
2018-05-21T15:01:27.898Z,30.40
2018-05-21T15:03:56.350Z,32.00
2018-05-21T15:06:23.942Z,32.00
2018-05-21T15:08:51.577Z,30.70
2018-05-21T15:11:19.147Z,30.90
2018-05-21T15:13:46.754Z,30.70
2018-05-21T15:16:14.334Z,30.80
2018-05-21T15:18:41.942Z,30.30
2018-05-21T15:21:10.329Z,32.00
2018-05-21T15:23:37.901Z,31.90
2018-05-21T15:26:05.473Z,32.20
2018-05-21T15:28:33.086Z,32.70
2018-05-21T15:31:00.669Z,32.40
2018-05-21T15:33:28.732Z,32.20
2018-05-21T15:35:56.316Z,32.50
2018-05-21T15:38:23.929Z,32.70
2018-05-21T15:40:51.501Z,33.40
2018-05-21T15:43:19.203Z,32.20
2018-05-21T15:45:46.713Z,31.80
2018-05-21T15:48:14.317Z,30.00
2018-05-21T15:50:41.884Z,31.30
2018-05-21T15:53:11.351Z,30.30
2018-05-21T15:55:38.915Z,29.70
2018-05-21T15:58:06.486Z,30.00
2018-05-21T16:00:34.860Z,30.90
2018-05-21T16:03:03.233Z,31.10
2018-05-21T16:05:30.841Z,31.00
2018-05-21T16:07:58.412Z,31.70
2018-05-21T16:10:26.025Z,31.60
2018-05-21T16:12:53.632Z,31.40
2018-05-21T16:15:21.245Z,30.70
2018-05-21T16:17:48.898Z,29.30
2018-05-21T16:20:16.456Z,29.90
2018-05-21T16:22:44.064Z,29.90
2018-05-21T16:25:11.680Z,29.70
2018-05-21T16:27:39.299Z,29.90
2018-05-21T16:30:06.946Z,31.00
2018-05-21T16:32:34.489Z,29.50
2018-05-21T16:35:02.105Z,29.40
2018-05-21T16:37:29.807Z,29.60
2018-05-21T16:39:58.184Z,28.80
2018-05-21T16:42:26.551Z,28.80
2018-05-21T16:44:54.205Z,28.90
2018-05-21T16:47:21.803Z,29.50
2018-05-21T16:49:49.428Z,29.20
2018-05-21T16:52:17.010Z,29.10
2018-05-21T16:54:45.356Z,29.10
2018-05-21T16:57:12.995Z,29.00
2018-05-21T16:59:40.565Z,29.50
2018-05-21T17:02:08.189Z,28.80
2018-05-21T17:04:35.766Z,28.50
2018-05-21T17:07:03.384Z,28.40
2018-05-21T17:09:30.962Z,29.10
2018-05-21T17:11:58.572Z,29.10
2018-05-21T17:14:26.159Z,29.60
2018-05-21T17:16:53.741Z,30.20
2018-05-21T17:19:22.118Z,30.00
2018-05-21T17:21:50.453Z,29.20
2018-05-21T17:24:18.066Z,29.20
2018-05-21T17:26:45.646Z,28.60
2018-05-21T17:29:13.267Z,28.70
2018-05-21T17:31:40.842Z,29.00
2018-05-21T17:34:08.493Z,29.00
2018-05-21T17:36:36.060Z,28.90
2018-05-21T17:39:03.631Z,29.20
2018-05-21T17:41:32.025Z,29.30
2018-05-21T17:43:59.633Z,29.20
2018-05-21T17:46:27.196Z,29.60
2018-05-21T17:48:54.805Z,30.00
2018-05-21T17:51:22.421Z,29.80
2018-05-21T17:53:50.037Z,30.00
2018-05-21T17:56:17.627Z,30.00
2018-05-21T17:58:45.244Z,30.00
2018-05-21T18:01:12.860Z,30.20
2018-05-21T18:03:40.455Z,30.60
2018-05-21T18:06:08.038Z,30.50
2018-05-21T18:08:35.650Z,31.10
2018-05-21T18:11:03.285Z,30.50
2018-05-21T18:13:30.868Z,31.10
2018-05-21T18:15:58.440Z,31.00
2018-05-21T18:18:26.066Z,31.60
2018-05-21T18:20:53.637Z,31.50
2018-05-21T18:23:21.248Z,31.30
2018-05-21T18:25:49.590Z,32.60
2018-05-21T18:28:17.219Z,32.50
2018-05-21T18:30:44.795Z,33.20
2018-05-21T18:33:12.414Z,33.30
2018-05-21T18:35:39.989Z,33.60
2018-05-21T18:38:07.621Z,34.10
2018-05-21T18:40:35.192Z,35.10
2018-05-21T18:43:02.765Z,36.60
2018-05-21T18:45:31.140Z,39.30
2018-05-21T18:47:59.472Z,40.10
2018-05-21T18:50:27.083Z,40.10
2018-05-21T18:52:54.660Z,41.20
2018-05-21T18:55:22.278Z,42.80
2018-05-21T18:57:49.854Z,42.60
2018-05-21T19:00:17.467Z,43.70
2018-05-21T19:02:45.050Z,44.40
2018-05-21T19:05:12.658Z,45.10
2018-05-21T19:07:40.230Z,45.60
2018-05-21T19:10:07.853Z,46.00
2018-05-21T19:12:35.434Z,46.40
2018-05-21T19:15:03.079Z,47.00
2018-05-21T19:17:30.642Z,47.50
2018-05-21T19:19:58.216Z,48.00
2018-05-21T19:22:25.838Z,47.80
2018-05-21T19:24:53.414Z,48.90
2018-05-21T19:27:21.752Z,49.20
2018-05-21T19:29:49.393Z,49.20
2018-05-21T19:32:16.971Z,49.60
2018-05-21T19:34:44.578Z,50.70
2018-05-21T19:37:12.156Z,51.10
2018-05-21T19:39:39.769Z,51.20
2018-05-21T19:42:07.338Z,52.10
2018-05-21T19:44:34.953Z,52.80
2018-05-21T19:47:02.561Z,52.80
2018-05-21T19:49:30.141Z,53.50
2018-05-21T19:51:58.517Z,54.20
2018-05-21T19:54:26.893Z,54.00
2018-05-21T19:56:55.429Z,54.00
2018-05-21T19:59:23.002Z,54.10
2018-05-21T20:01:50.622Z,55.50
2018-05-21T20:04:18.963Z,55.70
2018-05-21T20:06:46.540Z,55.70
2018-05-21T20:09:14.152Z,56.10
2018-05-21T20:11:41.731Z,56.50
2018-05-21T20:14:09.301Z,57.00
2018-05-21T20:16:36.906Z,57.80
2018-05-21T20:19:05.242Z,58.00
2018-05-21T20:21:32.863Z,58.00
2018-05-21T20:24:00.476Z,58.10
2018-05-21T20:26:28.247Z,58.60
2018-05-21T20:28:55.825Z,58.90
2018-05-21T20:31:23.462Z,59.10
2018-05-21T20:33:51.061Z,59.10
2018-05-21T20:36:18.637Z,58.50
2018-05-21T20:38:46.257Z,58.60
2018-05-21T20:41:13.837Z,58.90
2018-05-21T20:43:41.453Z,59.50
2018-05-21T20:46:09.029Z,59.40
2018-05-21T20:48:36.674Z,59.40
2018-05-21T20:51:04.246Z,59.10
2018-05-21T20:53:31.817Z,58.90
2018-05-21T20:55:59.424Z,59.90
2018-05-21T20:58:26.990Z,60.70
2018-05-21T21:00:54.597Z,60.00
2018-05-21T21:03:22.168Z,59.80
2018-05-21T21:05:49.788Z,60.00
2018-05-21T21:08:17.843Z,60.30
2018-05-21T21:10:45.476Z,59.80
2018-05-21T21:13:13.036Z,60.10
2018-05-21T21:15:40.613Z,60.40
2018-05-21T21:18:08.233Z,60.90
2018-05-21T21:20:35.796Z,60.10
2018-05-21T21:23:03.369Z,60.60
2018-05-21T21:25:30.975Z,61.00
2018-05-21T21:27:58.556Z,61.30
2018-05-21T21:30:26.158Z,61.80
2018-05-21T21:32:53.821Z,61.90
2018-05-21T21:35:21.384Z,62.70
2018-05-21T21:37:48.953Z,62.20
2018-05-21T21:40:16.563Z,61.90
2018-05-21T21:42:44.132Z,62.50
2018-05-21T21:45:11.746Z,62.50
2018-05-21T21:47:39.323Z,62.70
2018-05-21T21:50:06.893Z,62.80
2018-05-21T21:52:34.508Z,63.40
2018-05-21T21:55:02.078Z,63.20
2018-05-21T21:57:29.657Z,63.60
2018-05-21T21:59:57.280Z,63.80
2018-05-21T22:02:25.325Z,63.70
2018-05-21T22:04:53.302Z,64.30
2018-05-21T22:07:20.912Z,64.00
2018-05-21T22:09:49.287Z,65.30
2018-05-21T22:12:18.266Z,65.20
2018-05-21T22:14:47.018Z,65.20
2018-05-21T22:17:14.985Z,66.20
2018-05-21T22:19:42.641Z,66.30
2018-05-21T22:22:10.411Z,66.30
2018-05-21T22:24:39.004Z,67.60
2018-05-21T22:27:06.909Z,68.20
2018-05-21T22:29:34.483Z,69.00
2018-05-21T22:32:03.708Z,69.70
2018-05-21T22:34:31.317Z,70.30
2018-05-21T22:36:58.891Z,70.70
2018-05-21T22:39:26.576Z,71.30
2018-05-21T22:41:54.153Z,71.30
2018-05-21T22:44:21.835Z,72.40
2018-05-21T22:46:49.535Z,72.90
2018-05-21T22:49:17.115Z,74.20
2018-05-21T22:51:45.673Z,75.90
2018-05-21T22:57:14.997Z,76.30
2018-05-21T22:59:42.610Z,77.30
2018-05-21T23:02:10.189Z,79.10
2018-05-21T23:04:37.804Z,80.70
2018-05-21T23:07:06.141Z,81.80
2018-05-21T23:09:33.712Z,81.80
2018-05-21T23:12:01.334Z,82.70
2018-05-21T23:14:29.000Z,83.00
2018-05-21T23:16:56.555Z,83.90
2018-05-21T23:19:24.130Z,84.50
2018-05-21T23:21:51.756Z,85.40
2018-05-21T23:24:19.334Z,86.20
2018-05-21T23:26:46.918Z,86.00
2018-05-21T23:29:14.525Z,86.30
2018-05-21T23:31:42.102Z,87.20
2018-05-21T23:34:09.723Z,89.30
2018-05-21T23:36:37.305Z,88.80
2018-05-21T23:39:05.719Z,89.60
2018-05-21T23:41:33.345Z,90.50
2018-05-21T23:44:00.921Z,91.10
2018-05-21T23:46:28.485Z,91.60
2018-05-21T23:48:56.097Z,92.90
2018-05-21T23:51:23.672Z,93.60
2018-05-21T23:53:51.289Z,94.40
2018-05-21T23:56:18.874Z,95.10
2018-05-21T23:58:46.453Z,96.50
